createdAt,value
2022-09-07T00:11:39.725Z,1002.51
2022-09-07T00:12:00.771Z,1002.51
2022-09-07T00:12:21.825Z,1002.49
2022-09-07T00:12:42.875Z,1002.49
2022-09-07T00:13:03.969Z,1002.49
2022-09-07T00:13:25.029Z,1002.47
2022-09-07T00:13:46.106Z,1002.49
2022-09-07T00:14:07.134Z,1002.47
2022-09-07T00:14:28.185Z,1002.47
2022-09-07T00:14:49.237Z,1002.45
2022-09-07T01:04:15.496Z,1002.25
2022-09-07T01:04:36.544Z,1002.23
2022-09-07T01:04:57.598Z,1002.19
2022-09-07T01:05:18.657Z,1002.21
2022-09-07T01:05:39.714Z,1002.17
2022-09-07T01:06:00.799Z,1002.19
2022-09-07T01:06:21.852Z,1002.19
2022-09-07T01:06:42.892Z,1002.21
2022-09-07T01:07:03.951Z,1002.19
2022-09-07T01:07:24.995Z,1002.17
2022-09-07T01:07:46.048Z,1002.19
2022-09-07T01:08:07.108Z,1002.19
2022-09-07T01:08:28.210Z,1002.15
2022-09-07T01:08:49.259Z,1002.17
2022-09-07T01:09:10.310Z,1002.15
2022-09-07T01:09:31.361Z,1002.15
2022-09-07T01:09:52.415Z,1002.17
2022-09-07T01:10:13.475Z,1002.15
2022-09-07T01:10:34.516Z,1002.15
2022-09-07T01:10:55.570Z,1002.15
2022-09-07T01:11:16.747Z,1002.17
2022-09-07T01:11:37.798Z,1002.17
2022-09-07T01:11:58.851Z,1002.17
2022-09-07T01:12:19.901Z,1002.17
2022-09-07T01:12:40.946Z,1002.17
2022-09-07T01:13:01.990Z,1002.21
2022-09-07T01:13:23.045Z,1002.21
2022-09-07T01:13:44.104Z,1002.21
2022-09-07T01:14:05.163Z,1002.21
2022-09-07T01:14:26.218Z,1002.19
2022-09-07T01:14:47.277Z,1002.21
2022-09-07T01:15:08.323Z,1002.21
2022-09-07T01:15:29.377Z,1002.21
2022-09-07T01:15:50.533Z,1002.23
2022-09-07T01:16:11.735Z,1002.23
2022-09-07T01:16:32.940Z,1002.23
2022-09-07T01:16:53.991Z,1002.25
2022-09-07T01:17:15.042Z,1002.23
2022-09-07T01:17:36.091Z,1002.23
2022-09-07T01:17:57.142Z,1002.23
2022-09-07T01:18:18.212Z,1002.23
2022-09-07T01:18:39.260Z,1002.19
2022-09-07T01:19:00.313Z,1002.21
2022-09-07T01:19:21.366Z,1002.19
2022-09-07T01:19:42.413Z,1002.19
2022-09-07T01:20:03.463Z,1002.17
2022-09-07T01:20:24.525Z,1002.17
2022-09-07T01:20:45.587Z,1002.19
2022-09-07T01:21:06.640Z,1002.17
2022-09-07T01:21:27.715Z,1002.17
2022-09-07T01:21:48.888Z,1002.17
2022-09-07T01:22:09.944Z,1002.15
2022-09-07T01:22:30.985Z,1002.15
2022-09-07T01:22:52.045Z,1002.15
2022-09-07T01:23:13.095Z,1002.15
2022-09-07T01:23:34.147Z,1002.13
2022-09-07T01:23:55.194Z,1002.17
2022-09-07T01:24:16.254Z,1002.19
2022-09-07T01:24:37.302Z,1002.17
2022-09-07T01:24:58.352Z,1002.17
2022-09-07T01:25:19.395Z,1002.19
2022-09-07T01:25:40.449Z,1002.19
2022-09-07T01:26:01.500Z,1002.19
2022-09-07T01:26:22.557Z,1002.19
2022-09-07T01:26:43.603Z,1002.17
2022-09-07T01:27:04.673Z,1002.19
2022-09-07T01:27:25.721Z,1002.19
2022-09-07T01:27:46.769Z,1002.23
2022-09-07T01:28:07.820Z,1002.25
2022-09-07T01:28:28.953Z,1002.27
2022-09-07T01:28:50.063Z,1002.29
2022-09-07T01:29:11.113Z,1002.33
2022-09-07T01:29:32.164Z,1002.31
2022-09-07T01:29:53.213Z,1002.33
2022-09-07T01:30:14.264Z,1002.37
2022-09-07T01:30:35.321Z,1002.41
2022-09-07T01:30:56.421Z,1002.45
2022-09-07T01:31:17.494Z,1002.47
2022-09-07T01:31:38.513Z,1002.47
2022-09-07T01:31:59.702Z,1002.55
2022-09-07T01:32:20.748Z,1002.58
2022-09-07T01:32:41.796Z,1002.60
2022-09-07T01:33:02.844Z,1002.64
2022-09-07T01:33:23.894Z,1002.66
2022-09-07T01:33:44.944Z,1002.66
2022-09-07T01:34:05.990Z,1002.68
2022-09-07T01:34:27.042Z,1002.66
2022-09-07T01:34:48.092Z,1002.64
2022-09-07T01:35:09.135Z,1002.64
2022-09-07T01:35:30.182Z,1002.64
2022-09-07T01:35:51.234Z,1002.58
2022-09-07T01:36:12.288Z,1002.58
2022-09-07T01:36:33.340Z,1002.57
2022-09-07T01:36:54.394Z,1002.53
2022-09-07T01:37:15.563Z,1002.51
2022-09-07T01:37:36.621Z,1002.47
2022-09-07T01:37:57.677Z,1002.49
2022-09-07T01:38:18.721Z,1002.47
2022-09-07T01:38:39.779Z,1002.57
2022-09-07T01:39:00.824Z,1002.57
2022-09-07T01:39:21.874Z,1002.60
2022-09-07T01:39:42.989Z,1002.62
2022-09-07T01:40:04.112Z,1002.64
2022-09-07T01:40:25.133Z,1002.58
2022-09-07T01:40:46.180Z,1002.62
2022-09-07T01:41:07.230Z,1002.60
2022-09-07T01:41:28.288Z,1002.58
2022-09-07T01:41:49.341Z,1002.60
2022-09-07T01:42:10.385Z,1002.58
2022-09-07T01:42:31.450Z,1002.57
2022-09-07T01:42:52.498Z,1002.55
2022-09-07T01:43:13.558Z,1002.55
2022-09-07T01:43:34.608Z,1002.51
2022-09-07T01:43:55.657Z,1002.51
2022-09-07T01:44:16.709Z,1002.49
2022-09-07T01:44:37.761Z,1002.47
2022-09-07T01:44:58.812Z,1002.43
2022-09-07T01:45:19.862Z,1002.43
2022-09-07T01:45:40.918Z,1002.39
2022-09-07T01:46:02.025Z,1002.37
2022-09-07T01:46:23.147Z,1002.37
2022-09-07T01:46:44.266Z,1002.35
2022-09-07T01:47:05.304Z,1002.35
2022-09-07T01:47:26.350Z,1002.31
2022-09-07T01:47:47.528Z,1002.31
2022-09-07T01:48:08.574Z,1002.33
2022-09-07T01:48:29.743Z,1002.33
2022-09-07T01:48:50.752Z,1002.33
2022-09-07T01:49:11.813Z,1002.35
2022-09-07T01:49:32.856Z,1002.35
2022-09-07T01:49:53.909Z,1002.35
2022-09-07T01:50:14.963Z,1002.33
2022-09-07T01:50:36.011Z,1002.37
2022-09-07T01:50:57.059Z,1002.35
2022-09-07T01:51:18.107Z,1002.35
2022-09-07T01:51:39.161Z,1002.33
2022-09-07T01:52:00.219Z,1002.33
2022-09-07T01:52:21.271Z,1002.31
2022-09-07T01:52:42.327Z,1002.29
2022-09-07T01:53:03.519Z,1002.31
2022-09-07T01:53:24.567Z,1002.31
2022-09-07T01:53:45.625Z,1002.31
2022-09-07T01:54:06.674Z,1002.29
2022-09-07T01:54:27.734Z,1002.29
2022-09-07T01:54:48.802Z,1002.29
2022-09-07T01:55:09.857Z,1002.27
2022-09-07T01:55:30.912Z,1002.25
2022-09-07T01:55:51.960Z,1002.25
2022-09-07T01:56:13.015Z,1002.23
2022-09-07T01:56:34.068Z,1002.25
2022-09-07T01:56:55.117Z,1002.21
2022-09-07T01:57:16.181Z,1002.19
2022-09-07T01:57:37.229Z,1002.19
2022-09-07T01:57:58.289Z,1002.17
2022-09-07T01:58:19.358Z,1002.15
2022-09-07T01:58:40.404Z,1002.15
2022-09-07T01:59:01.457Z,1002.13
2022-09-07T01:59:22.506Z,1002.11
2022-09-07T01:59:43.562Z,1002.11
2022-09-07T02:00:04.615Z,1002.10
2022-09-07T02:00:25.668Z,1002.11
2022-09-07T02:00:46.718Z,1002.10
2022-09-07T02:01:07.770Z,1002.10
2022-09-07T02:01:28.847Z,1002.11
2022-09-07T02:01:49.928Z,1002.10
2022-09-07T02:02:10.963Z,1002.10
2022-09-07T02:02:32.058Z,1002.13
2022-09-07T02:02:53.118Z,1002.13
2022-09-07T02:03:14.148Z,1002.10
2022-09-07T02:03:35.325Z,1002.11
2022-09-07T02:03:56.367Z,1002.13
2022-09-07T02:04:17.417Z,1002.10
2022-09-07T02:04:38.471Z,1002.08
2022-09-07T02:04:59.519Z,1002.06
2022-09-07T02:05:20.568Z,1002.08
2022-09-07T02:05:41.619Z,1002.06
2022-09-07T02:06:02.670Z,1002.02
2022-09-07T02:06:23.730Z,1002.00
2022-09-07T02:06:44.784Z,1001.98
2022-09-07T02:07:05.830Z,1001.96
2022-09-07T02:07:26.878Z,1001.96
2022-09-07T02:07:47.929Z,1001.90
2022-09-07T02:08:08.978Z,1001.92
2022-09-07T02:08:30.209Z,1001.86
2022-09-07T02:08:51.278Z,1001.86
2022-09-07T02:09:12.344Z,1001.86
2022-09-07T02:09:33.399Z,1001.86
2022-09-07T02:09:54.452Z,1001.86
2022-09-07T02:10:15.498Z,1001.86
2022-09-07T02:10:36.549Z,1001.86
2022-09-07T02:10:57.607Z,1001.88
2022-09-07T02:11:18.659Z,1001.92
2022-09-07T02:11:39.706Z,1001.90
2022-09-07T02:12:00.756Z,1001.92
2022-09-07T02:12:21.812Z,1001.94
2022-09-07T02:12:42.866Z,1001.94
2022-09-07T02:13:03.916Z,1001.94
2022-09-07T02:13:24.971Z,1001.98
2022-09-07T02:13:46.018Z,1002.02
2022-09-07T02:14:07.188Z,1002.02
2022-09-07T02:14:28.245Z,1002.08
2022-09-07T02:14:52.492Z,1002.11
2022-09-07T02:15:13.864Z,1002.17
2022-09-07T02:15:34.960Z,1002.21
2022-09-07T02:15:56.080Z,1002.29
2022-09-07T02:16:17.176Z,1002.29
2022-09-07T02:16:38.206Z,1002.35
2022-09-07T02:16:59.253Z,1002.39
2022-09-07T02:17:20.304Z,1002.41
2022-09-07T02:17:41.352Z,1002.45
2022-09-07T02:18:02.407Z,1002.45
2022-09-07T02:18:23.464Z,1002.45
2022-09-07T02:18:44.515Z,1002.47
2022-09-07T02:19:05.563Z,1002.47
2022-09-07T02:19:26.624Z,1002.49
2022-09-07T02:19:47.674Z,1002.51
2022-09-07T02:20:08.723Z,1002.53
2022-09-07T02:20:29.785Z,1002.55
2022-09-07T02:20:50.829Z,1002.57
2022-09-07T02:21:11.879Z,1002.58
2022-09-07T02:21:32.934Z,1002.62
2022-09-07T02:21:53.976Z,1002.68
2022-09-07T02:22:15.028Z,1002.72
2022-09-07T02:22:36.082Z,1002.83
2022-09-07T02:22:57.133Z,1002.85
2022-09-07T02:23:18.184Z,1002.90
2022-09-07T02:23:39.237Z,1002.96
2022-09-07T02:24:00.288Z,1003.00
2022-09-07T02:24:21.333Z,1003.08
2022-09-07T02:24:42.505Z,1003.14
2022-09-07T02:25:03.557Z,1003.18
2022-09-07T02:25:24.605Z,1003.22
2022-09-07T02:25:45.657Z,1003.28
2022-09-07T02:26:06.709Z,1003.32
2022-09-07T02:26:27.755Z,1003.35
2022-09-07T02:26:48.809Z,1003.37
2022-09-07T02:27:09.860Z,1003.35
2022-09-07T02:27:30.907Z,1003.39
2022-09-07T02:27:51.961Z,1003.39
2022-09-07T02:28:13.006Z,1003.41
2022-09-07T02:28:34.061Z,1003.39
2022-09-07T02:28:55.104Z,1003.37
2022-09-07T02:29:16.163Z,1003.39
2022-09-07T02:29:37.211Z,1003.37
2022-09-07T02:29:58.391Z,1003.35
2022-09-07T02:30:19.442Z,1003.30
2022-09-07T02:30:40.562Z,1003.28
2022-09-07T02:31:01.748Z,1003.28
2022-09-07T02:31:22.897Z,1003.26
2022-09-07T02:31:44.031Z,1003.24
2022-09-07T02:32:05.079Z,1003.24
2022-09-07T02:32:26.129Z,1003.24
2022-09-07T02:32:47.192Z,1003.16
2022-09-07T02:33:08.241Z,1003.14
2022-09-07T02:33:29.289Z,1003.18
2022-09-07T02:33:50.334Z,1003.10
2022-09-07T02:34:11.387Z,1003.06
2022-09-07T02:34:32.441Z,1003.06
2022-09-07T02:34:53.495Z,1003.10
2022-09-07T02:35:14.658Z,1003.08
2022-09-07T02:35:35.710Z,1003.06
2022-09-07T02:35:56.768Z,1003.06
2022-09-07T02:36:17.811Z,1003.04
2022-09-07T02:36:38.861Z,1003.06
2022-09-07T02:36:59.911Z,1003.02
2022-09-07T02:37:20.959Z,1003.02
2022-09-07T02:37:42.011Z,1003.02
2022-09-07T02:38:03.067Z,1003.06
2022-09-07T02:38:24.115Z,1003.04
2022-09-07T02:38:45.168Z,1003.04
2022-09-07T02:39:06.226Z,1003.04
2022-09-07T02:39:27.330Z,1003.06
2022-09-07T02:39:48.400Z,1003.06
2022-09-07T02:40:09.558Z,1003.06
2022-09-07T02:40:30.706Z,1003.08
2022-09-07T02:40:51.768Z,1003.08
2022-09-07T02:41:12.817Z,1003.08
2022-09-07T02:41:33.876Z,1003.08
2022-09-07T02:41:54.926Z,1003.08
2022-09-07T02:42:15.990Z,1003.06
2022-09-07T02:42:37.065Z,1003.08
2022-09-07T02:42:58.119Z,1003.06
2022-09-07T02:43:19.169Z,1003.08
2022-09-07T02:43:40.221Z,1003.08
2022-09-07T02:44:01.271Z,1003.10
2022-09-07T02:44:22.322Z,1003.10
2022-09-07T02:44:43.370Z,1003.10
2022-09-07T02:45:04.422Z,1003.10
2022-09-07T02:45:25.469Z,1003.10
2022-09-07T02:45:46.579Z,1003.12
2022-09-07T02:46:07.765Z,1003.12
2022-09-07T02:46:28.861Z,1003.14
2022-09-07T02:46:49.887Z,1003.16
2022-09-07T02:47:10.936Z,1003.14
2022-09-07T02:47:31.996Z,1003.18
2022-09-07T02:47:53.039Z,1003.16
2022-09-07T02:48:14.092Z,1003.20
2022-09-07T02:48:35.152Z,1003.20
2022-09-07T02:48:56.204Z,1003.20
2022-09-07T02:49:17.259Z,1003.20
2022-09-07T02:49:38.320Z,1003.22
2022-09-07T02:49:59.379Z,1003.26
2022-09-07T02:50:20.433Z,1003.24
2022-09-07T02:50:41.481Z,1003.24
2022-09-07T02:51:02.656Z,1003.28
2022-09-07T02:51:23.726Z,1003.30
2022-09-07T02:51:44.755Z,1003.32
2022-09-07T02:52:05.811Z,1003.34
2022-09-07T02:52:26.861Z,1003.35
2022-09-07T02:52:47.903Z,1003.41
2022-09-07T02:53:08.950Z,1003.41
2022-09-07T02:53:30.010Z,1003.47
2022-09-07T02:53:51.054Z,1003.51
2022-09-07T02:54:12.115Z,1003.51
2022-09-07T02:54:33.153Z,1003.61
2022-09-07T02:54:54.225Z,1003.63
2022-09-07T02:55:15.280Z,1003.67
2022-09-07T02:55:36.337Z,1003.75
2022-09-07T02:55:57.391Z,1003.77
2022-09-07T02:56:18.438Z,1003.77
2022-09-07T02:56:39.488Z,1003.75
2022-09-07T02:57:00.543Z,1003.75
2022-09-07T02:57:21.587Z,1003.77
2022-09-07T02:57:42.642Z,1003.75
2022-09-07T02:58:03.687Z,1003.75
2022-09-07T02:58:24.788Z,1003.79
2022-09-07T02:58:45.801Z,1003.77
2022-09-07T02:59:06.857Z,1003.73
2022-09-07T02:59:27.912Z,1003.71
2022-09-07T02:59:48.975Z,1003.71
2022-09-07T03:00:10.163Z,1003.69
2022-09-07T03:00:31.208Z,1003.69
2022-09-07T03:00:52.263Z,1003.69
2022-09-07T03:01:13.386Z,1003.71
2022-09-07T03:01:34.506Z,1003.73
2022-09-07T03:01:55.577Z,1003.73
2022-09-07T03:02:16.665Z,1003.73
2022-09-07T03:02:37.747Z,1003.75
2022-09-07T03:02:58.823Z,1003.75
2022-09-07T03:03:19.840Z,1003.75
2022-09-07T03:03:40.896Z,1003.77
2022-09-07T03:04:01.946Z,1003.77
2022-09-07T03:04:23.003Z,1003.79
2022-09-07T03:04:44.053Z,1003.77
2022-09-07T03:05:05.098Z,1003.77
2022-09-07T03:05:26.165Z,1003.77
2022-09-07T03:05:47.219Z,1003.77
2022-09-07T03:06:08.269Z,1003.75
2022-09-07T03:06:29.321Z,1003.71
2022-09-07T03:06:50.372Z,1003.71
2022-09-07T03:07:11.418Z,1003.67
2022-09-07T03:07:35.764Z,1003.65
2022-09-07T03:07:56.992Z,1003.61
2022-09-07T03:08:18.058Z,1003.59
2022-09-07T03:08:39.101Z,1003.59
2022-09-07T03:09:00.151Z,1003.59
2022-09-07T03:09:21.205Z,1003.59
2022-09-07T03:09:42.259Z,1003.59
2022-09-07T03:10:03.319Z,1003.61
2022-09-07T03:10:24.368Z,1003.61
2022-09-07T03:10:45.443Z,1003.61
2022-09-07T03:11:06.496Z,1003.59
2022-09-07T03:11:27.546Z,1003.59
2022-09-07T03:11:48.595Z,1003.55
2022-09-07T03:12:09.645Z,1003.55
2022-09-07T03:12:30.692Z,1003.53
2022-09-07T03:12:51.743Z,1003.49
2022-09-07T03:13:12.799Z,1003.49
2022-09-07T03:13:33.851Z,1003.47
2022-09-07T03:13:54.904Z,1003.51
2022-09-07T03:14:15.950Z,1003.51
2022-09-07T03:14:37.001Z,1003.49
2022-09-07T03:14:58.055Z,1003.49
2022-09-07T03:15:19.105Z,1003.43
2022-09-07T03:15:40.262Z,1003.39
2022-09-07T03:16:01.462Z,1003.35
2022-09-07T03:16:22.538Z,1003.32
2022-09-07T03:16:43.574Z,1003.28
2022-09-07T03:17:04.644Z,1003.28
2022-09-07T03:17:25.678Z,1003.22
2022-09-07T03:17:46.734Z,1003.22
2022-09-07T03:18:07.781Z,1003.24
2022-09-07T03:18:28.873Z,1003.24
2022-09-07T03:18:49.937Z,1003.24
2022-09-07T03:19:10.988Z,1003.24
2022-09-07T03:19:32.050Z,1003.22
2022-09-07T03:19:53.096Z,1003.20
2022-09-07T03:20:14.154Z,1003.20
2022-09-07T03:20:35.224Z,1003.18
2022-09-07T03:20:56.273Z,1003.18
2022-09-07T03:21:17.343Z,1003.18
2022-09-07T03:21:38.405Z,1003.12
2022-09-07T03:21:59.456Z,1003.08
2022-09-07T03:22:20.516Z,1003.06
2022-09-07T03:22:41.568Z,1003.00
2022-09-07T03:23:02.621Z,1003.00
2022-09-07T03:23:23.680Z,1002.98
2022-09-07T03:23:47.766Z,1002.96
2022-09-07T03:24:11.697Z,1002.94
2022-09-07T03:24:32.750Z,1002.94
2022-09-07T03:24:53.825Z,1002.92
2022-09-07T03:25:14.844Z,1002.88
2022-09-07T03:25:35.902Z,1002.90
2022-09-07T03:25:56.952Z,1002.90
2022-09-07T03:26:18.031Z,1002.87
2022-09-07T03:26:39.189Z,1002.87
2022-09-07T03:27:00.235Z,1002.87
2022-09-07T03:27:21.289Z,1002.90
2022-09-07T03:27:42.339Z,1002.85
2022-09-07T03:28:03.394Z,1002.87
2022-09-07T03:28:24.470Z,1002.87
2022-09-07T03:28:45.525Z,1002.83
2022-09-07T03:29:06.582Z,1002.85
2022-09-07T03:29:27.624Z,1002.85
2022-09-07T03:29:48.682Z,1002.81
2022-09-07T03:30:09.727Z,1002.81
2022-09-07T03:30:30.805Z,1002.81
2022-09-07T03:30:51.902Z,1002.81
2022-09-07T03:31:13.016Z,1002.70
2022-09-07T03:31:34.138Z,1002.70
2022-09-07T03:31:55.188Z,1002.68
2022-09-07T03:32:16.238Z,1002.66
2022-09-07T03:32:37.302Z,1002.62
2022-09-07T03:32:58.344Z,1002.60
2022-09-07T03:33:19.389Z,1002.58
2022-09-07T03:33:40.459Z,1002.55
2022-09-07T03:34:01.490Z,1002.55
2022-09-07T03:34:22.543Z,1002.49
2022-09-07T03:34:43.591Z,1002.47
2022-09-07T03:35:04.660Z,1002.43
2022-09-07T03:35:25.707Z,1002.41
2022-09-07T03:35:46.762Z,1002.39
2022-09-07T03:36:07.806Z,1002.33
2022-09-07T03:36:28.853Z,1002.35
2022-09-07T03:36:49.924Z,1002.31
2022-09-07T03:37:10.978Z,1002.31
2022-09-07T03:37:32.026Z,1002.27
2022-09-07T03:37:53.083Z,1002.23
2022-09-07T03:38:14.134Z,1002.21
2022-09-07T03:38:35.245Z,1002.19
2022-09-07T03:38:56.248Z,1002.19
2022-09-07T03:39:17.303Z,1002.15
2022-09-07T03:39:38.426Z,1002.13
2022-09-07T03:39:59.508Z,1002.13
2022-09-07T03:40:20.546Z,1002.10
2022-09-07T03:40:41.603Z,1002.08
2022-09-07T03:41:02.658Z,1002.08
2022-09-07T03:41:23.728Z,1002.08
2022-09-07T03:41:44.788Z,1002.00
2022-09-07T03:42:05.948Z,1002.00
2022-09-07T03:42:27.009Z,1001.98
2022-09-07T03:42:48.063Z,1001.96
2022-09-07T03:43:09.117Z,1001.96
2022-09-07T03:43:30.186Z,1001.94
2022-09-07T03:43:51.229Z,1001.92
2022-09-07T03:44:12.282Z,1001.94
2022-09-07T03:44:33.335Z,1001.94
2022-09-07T03:44:54.390Z,1001.96
2022-09-07T03:45:15.440Z,1001.94
2022-09-07T03:45:36.493Z,1001.92
2022-09-07T03:45:57.620Z,1001.90
2022-09-07T03:46:18.707Z,1001.90
2022-09-07T03:46:39.734Z,1001.88
2022-09-07T03:47:00.786Z,1001.88
2022-09-07T03:47:21.966Z,1001.88
2022-09-07T03:47:43.014Z,1001.84
2022-09-07T03:48:04.079Z,1001.84
2022-09-07T03:48:25.184Z,1001.78
2022-09-07T03:48:46.207Z,1001.76
2022-09-07T03:49:07.263Z,1001.74
2022-09-07T03:49:28.320Z,1001.74
2022-09-07T03:49:49.388Z,1001.74
2022-09-07T03:50:10.445Z,1001.74
2022-09-07T03:50:31.486Z,1001.72
2022-09-07T03:50:52.541Z,1001.70
2022-09-07T03:51:13.592Z,1001.74
2022-09-07T03:51:34.651Z,1001.72
2022-09-07T03:51:55.708Z,1001.72
2022-09-07T03:52:16.750Z,1001.66
2022-09-07T03:52:37.824Z,1001.70
2022-09-07T03:52:58.876Z,1001.66
2022-09-07T03:53:19.921Z,1001.70
2022-09-07T03:53:40.978Z,1001.66
2022-09-07T03:54:02.033Z,1001.64
2022-09-07T03:54:23.090Z,1001.66
2022-09-07T03:54:44.149Z,1001.68
2022-09-07T03:55:05.197Z,1001.70
2022-09-07T03:55:26.251Z,1001.68
2022-09-07T03:55:47.324Z,1001.66
2022-09-07T03:56:08.369Z,1001.68
2022-09-07T03:56:29.425Z,1001.72
2022-09-07T03:56:50.479Z,1001.70
2022-09-07T03:57:11.533Z,1001.72
2022-09-07T03:57:32.591Z,1001.72
2022-09-07T03:57:53.663Z,1001.70
2022-09-07T03:58:14.725Z,1001.76
2022-09-07T03:58:35.763Z,1001.76
2022-09-07T03:58:56.815Z,1001.74
2022-09-07T03:59:17.866Z,1001.74
2022-09-07T03:59:38.914Z,1001.74
2022-09-07T03:59:59.964Z,1001.74
2022-09-07T04:00:21.017Z,1001.76
2022-09-07T04:00:42.064Z,1001.78
2022-09-07T04:01:03.159Z,1001.78
2022-09-07T04:01:24.281Z,1001.78
2022-09-07T04:01:45.357Z,1001.80
2022-09-07T04:02:06.440Z,1001.80
2022-09-07T04:02:27.545Z,1001.78
2022-09-07T04:02:48.663Z,1001.78
2022-09-07T04:03:09.819Z,1001.80
2022-09-07T04:03:30.874Z,1001.78
2022-09-07T04:03:51.939Z,1001.80
2022-09-07T04:04:12.996Z,1001.82
2022-09-07T04:04:34.049Z,1001.82
2022-09-07T04:04:55.100Z,1001.80
2022-09-07T04:05:16.158Z,1001.82
2022-09-07T04:05:37.209Z,1001.80
2022-09-07T04:05:58.265Z,1001.82
2022-09-07T04:06:19.318Z,1001.80
2022-09-07T04:06:40.371Z,1001.80
2022-09-07T04:07:01.426Z,1001.80
2022-09-07T04:07:22.487Z,1001.82
2022-09-07T04:07:43.531Z,1001.80
2022-09-07T04:08:04.587Z,1001.76
2022-09-07T04:08:25.817Z,1001.76
2022-09-07T04:08:46.901Z,1001.76
2022-09-07T04:09:07.954Z,1001.76
2022-09-07T04:09:29.008Z,1001.76
2022-09-07T04:09:50.066Z,1001.72
2022-09-07T04:10:11.119Z,1001.76
2022-09-07T04:10:32.170Z,1001.76
2022-09-07T04:10:53.223Z,1001.80
2022-09-07T04:11:14.273Z,1001.76
2022-09-07T04:11:35.322Z,1001.80
2022-09-07T04:11:56.380Z,1001.80
2022-09-07T04:12:17.437Z,1001.80
2022-09-07T04:12:38.494Z,1001.80
2022-09-07T04:12:59.546Z,1001.82
2022-09-07T04:13:20.597Z,1001.84
2022-09-07T04:13:41.775Z,1001.86
2022-09-07T04:14:02.826Z,1001.86
2022-09-07T04:14:23.879Z,1001.88
2022-09-07T04:14:44.927Z,1001.86
2022-09-07T04:15:05.983Z,1001.86
2022-09-07T04:15:27.032Z,1001.88
2022-09-07T04:15:52.087Z,1001.88
2022-09-07T04:16:15.046Z,1001.88
2022-09-07T04:16:36.194Z,1001.88
2022-09-07T04:16:57.303Z,1001.86
2022-09-07T04:17:18.341Z,1001.86
2022-09-07T04:17:39.405Z,1001.84
2022-09-07T04:18:00.452Z,1001.84
2022-09-07T04:18:21.501Z,1001.86
2022-09-07T04:18:42.581Z,1001.84
2022-09-07T04:19:03.624Z,1001.86
2022-09-07T04:19:24.676Z,1001.84
2022-09-07T04:19:45.733Z,1001.80
2022-09-07T04:20:06.781Z,1001.82
2022-09-07T04:20:27.832Z,1001.82
2022-09-07T04:20:48.889Z,1001.80
2022-09-07T04:21:09.942Z,1001.80
2022-09-07T04:21:30.995Z,1001.82
2022-09-07T04:21:52.041Z,1001.84
2022-09-07T04:22:13.087Z,1001.84
2022-09-07T04:22:34.145Z,1001.80
2022-09-07T04:22:55.193Z,1001.84
2022-09-07T04:23:16.242Z,1001.84
2022-09-07T04:23:37.296Z,1001.82
2022-09-07T04:23:58.473Z,1001.82
2022-09-07T04:24:19.530Z,1001.80
2022-09-07T04:24:40.588Z,1001.78
2022-09-07T04:25:01.643Z,1001.80
2022-09-07T04:25:22.696Z,1001.78
2022-09-07T04:25:43.748Z,1001.78
2022-09-07T04:26:04.800Z,1001.76
2022-09-07T04:26:25.862Z,1001.78
2022-09-07T04:26:46.915Z,1001.78
2022-09-07T04:27:07.967Z,1001.76
2022-09-07T04:27:29.015Z,1001.76
2022-09-07T04:27:50.067Z,1001.74
2022-09-07T04:28:11.116Z,1001.74
2022-09-07T04:28:32.296Z,1001.68
2022-09-07T04:28:53.400Z,1001.74
2022-09-07T04:29:14.468Z,1001.74
2022-09-07T04:29:35.526Z,1001.76
2022-09-07T04:29:56.571Z,1001.72
2022-09-07T04:30:17.624Z,1001.74
2022-09-07T04:30:38.738Z,1001.74
2022-09-07T04:30:59.811Z,1001.76
2022-09-07T04:31:20.937Z,1001.78
2022-09-07T04:31:42.026Z,1001.80
2022-09-07T04:32:03.072Z,1001.82
2022-09-07T04:32:24.119Z,1001.84
2022-09-07T04:32:45.185Z,1001.84
2022-09-07T04:33:06.224Z,1001.80
2022-09-07T04:33:27.274Z,1001.84
2022-09-07T04:33:48.348Z,1001.82
2022-09-07T04:34:09.545Z,1001.84
2022-09-07T04:34:30.605Z,1001.84
2022-09-07T04:34:51.646Z,1001.82
2022-09-07T04:35:12.707Z,1001.84
2022-09-07T04:35:33.772Z,1001.84
2022-09-07T04:35:54.823Z,1001.86
2022-09-07T04:36:15.875Z,1001.86
2022-09-07T04:36:36.929Z,1001.88
2022-09-07T04:36:57.983Z,1001.88
2022-09-07T04:37:19.034Z,1001.88
2022-09-07T04:37:40.088Z,1001.88
2022-09-07T04:38:01.138Z,1001.88
2022-09-07T04:38:22.188Z,1001.84
2022-09-07T04:38:43.239Z,1001.84
2022-09-07T04:39:04.297Z,1001.84
2022-09-07T04:39:25.620Z,1001.84
2022-09-07T04:39:46.713Z,1001.82
2022-09-07T04:40:07.803Z,1001.82
2022-09-07T04:40:28.846Z,1001.84
2022-09-07T04:40:49.899Z,1001.86
2022-09-07T04:41:10.966Z,1001.84
2022-09-07T04:41:32.010Z,1001.84
2022-09-07T04:41:53.071Z,1001.86
2022-09-07T04:42:14.131Z,1001.86
2022-09-07T04:42:35.184Z,1001.84
2022-09-07T04:42:56.235Z,1001.90
2022-09-07T04:43:17.292Z,1001.90
2022-09-07T04:43:38.342Z,1001.86
2022-09-07T04:43:59.399Z,1001.88
2022-09-07T04:44:20.453Z,1001.92
2022-09-07T04:44:41.528Z,1001.88
2022-09-07T04:45:02.590Z,1001.88
2022-09-07T04:45:23.641Z,1001.88
2022-09-07T04:45:44.745Z,1001.88
2022-09-07T04:46:05.867Z,1001.90
2022-09-07T04:46:26.962Z,1001.88
2022-09-07T04:46:48.019Z,1001.92
2022-09-07T04:47:09.077Z,1001.92
2022-09-07T04:47:30.132Z,1001.92
2022-09-07T04:47:51.187Z,1001.92
2022-09-07T04:48:12.236Z,1001.88
2022-09-07T04:48:33.292Z,1001.92
2022-09-07T04:48:54.347Z,1001.90
2022-09-07T04:49:15.400Z,1001.90
2022-09-07T04:49:36.447Z,1001.88
2022-09-07T04:49:57.625Z,1001.84
2022-09-07T04:50:18.676Z,1001.88
2022-09-07T04:50:39.733Z,1001.84
2022-09-07T04:51:04.049Z,1001.86
2022-09-07T04:51:26.735Z,1001.86
2022-09-07T04:51:47.789Z,1001.92
2022-09-07T04:52:08.845Z,1001.88
2022-09-07T04:52:29.905Z,1001.90
2022-09-07T04:52:50.946Z,1001.92
2022-09-07T04:53:11.998Z,1001.92
2022-09-07T04:53:33.057Z,1001.94
2022-09-07T04:53:54.112Z,1001.94
2022-09-07T04:54:15.168Z,1001.94
2022-09-07T04:54:36.229Z,1001.96
2022-09-07T04:54:57.391Z,1001.98
2022-09-07T04:55:18.443Z,1002.02
2022-09-07T04:55:39.495Z,1002.02
2022-09-07T04:56:00.546Z,1002.04
2022-09-07T04:56:21.599Z,1002.02
2022-09-07T04:56:42.768Z,1002.04
2022-09-07T04:57:03.816Z,1002.02
2022-09-07T04:57:24.867Z,1002.00
2022-09-07T04:57:45.919Z,1002.02
2022-09-07T04:58:06.970Z,1002.02
2022-09-07T04:58:28.021Z,1002.02
2022-09-07T04:58:49.067Z,1002.02
2022-09-07T04:59:10.121Z,1002.00
2022-09-07T04:59:31.176Z,1002.02
2022-09-07T04:59:52.224Z,1002.02
2022-09-07T05:00:13.601Z,1001.96
2022-09-07T05:00:34.658Z,1002.02
2022-09-07T05:00:55.778Z,1001.98
2022-09-07T05:01:16.928Z,1002.04
2022-09-07T05:01:38.040Z,1002.02
2022-09-07T05:01:59.154Z,1002.02
2022-09-07T05:02:20.227Z,1002.04
2022-09-07T05:02:41.340Z,1002.06
2022-09-07T05:03:02.389Z,1002.04
2022-09-07T05:03:23.453Z,1002.06
2022-09-07T05:03:44.501Z,1002.06
2022-09-07T05:04:05.578Z,1002.06
2022-09-07T05:04:26.614Z,1002.08
2022-09-07T05:04:47.689Z,1002.10
2022-09-07T05:05:08.743Z,1002.10
2022-09-07T05:05:29.794Z,1002.11
2022-09-07T05:05:50.838Z,1002.13
2022-09-07T05:06:11.891Z,1002.15
2022-09-07T05:06:32.949Z,1002.13
2022-09-07T05:06:54.060Z,1002.17
2022-09-07T05:07:15.064Z,1002.17
2022-09-07T05:07:36.118Z,1002.17
2022-09-07T05:07:57.167Z,1002.17
2022-09-07T05:08:18.221Z,1002.17
2022-09-07T05:08:39.274Z,1002.19
2022-09-07T05:09:00.337Z,1002.17
2022-09-07T05:09:21.407Z,1002.17
2022-09-07T05:09:42.455Z,1002.13
2022-09-07T05:10:03.507Z,1002.15
2022-09-07T05:10:24.557Z,1002.17
2022-09-07T05:10:45.615Z,1002.17
2022-09-07T05:11:06.686Z,1002.19
2022-09-07T05:11:29.451Z,1002.17
2022-09-07T05:11:50.986Z,1002.19
2022-09-07T05:12:12.032Z,1002.19
2022-09-07T05:12:33.091Z,1002.19
2022-09-07T05:12:54.145Z,1002.23
2022-09-07T05:13:15.192Z,1002.23
2022-09-07T05:13:36.256Z,1002.25
2022-09-07T05:13:57.305Z,1002.25
2022-09-07T05:14:18.384Z,1002.27
2022-09-07T05:14:39.433Z,1002.27
2022-09-07T05:15:00.481Z,1002.25
2022-09-07T05:15:21.534Z,1002.25
2022-09-07T05:15:42.589Z,1002.25